CYKO

Details ICAO CYKO (AKV)
Name AKULIVIK
Region Canada
Timezone America/Montreal (UTC-4.0)
Plans Departing 3
Arriving 8
Stats Elevation 75 ft / 23 m (AMSL)
Location 60.818611° -78.148612°
Runways 1
Magnetic Variation 19.887° W
Sunrise 2018-05-26 08:05:19 UTC / 2018-05-26 04:05:19 Local
Sunset 2018-05-27 02:16:53 UTC / 2018-05-26 22:16:53 Local
Advertisement - Login to hide

Runways

ID Width Length Bearing (true) Bearing (mag) Surface Threshold Offset Overrun Length
08 100 ft / 30 m 3,555 ft / 1,084 m 62.81° 82.70° Gravel 0 ft / 0 m 0 ft / 0 m
26 100 ft / 30 m 3,555 ft / 1,084 m 242.83° 262.72° Gravel 0 ft / 0 m 0 ft / 0 m

Map

Weather


0- 5 10 15 20 25 30 35+ Temperature / ° C

Clouds and Precipitation
Forecast for 2018-05-26 18:00 UTC. Updated 2 hours ago

Ground ~20,000 ft ~40,000 ft Winds

METAR

CYKO 261900Z 26007KT 15SM OVC010 M03/M06 A3017 RMK SC8 SLP220

TAF

Not found

Frequencies

Unicom 122.10 MHz MF/CTAF
Tower 122.10 MHz ARPT RDO
Warning: Do not use this data for real-world aviation or navigation. No guarantee of current accuracy is given.